createdAt,value
2019-03-28T00:00:05.912Z,96.50
2019-03-28T00:01:05.766Z,96.22
2019-03-28T00:02:05.766Z,96.69
2019-03-28T00:03:05.596Z,96.22
2019-03-28T00:04:05.537Z,96.50
2019-03-28T00:05:05.480Z,96.59
2019-03-28T00:06:05.387Z,96.41
2019-03-28T00:07:05.269Z,96.41
2019-03-28T00:08:05.244Z,96.22
2019-03-28T00:09:07.627Z,96.59
2019-03-28T00:10:05.020Z,97.26
2019-03-28T00:11:04.958Z,97.36
2019-03-28T00:12:04.922Z,97.92
2019-03-28T00:13:05.151Z,97.59
2019-03-28T00:14:04.750Z,98.25
2019-03-28T00:15:04.626Z,98.44
2019-03-28T00:16:04.654Z,98.92
2019-03-28T00:17:04.565Z,99.11
2019-03-28T00:18:04.445Z,98.73
2019-03-28T00:19:04.298Z,99.11
2019-03-28T00:20:04.213Z,98.54
2019-03-28T00:21:04.186Z,98.25
2019-03-28T00:22:05.674Z,98.73
2019-03-28T00:23:04.007Z,98.25
2019-03-28T00:24:03.936Z,97.88
2019-03-28T00:25:03.904Z,98.44
2019-03-28T00:26:03.795Z,98.25
2019-03-28T00:27:03.699Z,97.59
2019-03-28T00:28:03.602Z,97.78
2019-03-28T00:29:03.505Z,97.12
2019-03-28T00:30:03.436Z,97.02
2019-03-28T00:31:03.390Z,96.73
2019-03-28T00:32:03.236Z,97.50
2019-03-28T00:33:03.180Z,97.31
2019-03-28T00:34:03.121Z,97.69
2019-03-28T00:35:02.998Z,98.54
2019-03-28T00:36:02.953Z,98.82
2019-03-28T00:37:02.857Z,98.73
2019-03-28T00:38:02.774Z,98.92
2019-03-28T00:39:02.666Z,98.73
2019-03-28T00:40:02.587Z,99.01
2019-03-28T00:41:02.598Z,99.11
2019-03-28T00:42:02.476Z,98.92
2019-03-28T00:43:02.449Z,98.73
2019-03-28T00:44:02.306Z,98.82
2019-03-28T00:45:02.187Z,99.30
2019-03-28T00:46:02.168Z,99.39
2019-03-28T00:47:02.022Z,99.77
2019-03-28T00:48:01.945Z,99.77
2019-03-28T00:49:01.891Z,99.96
2019-03-28T00:50:01.863Z,99.49
2019-03-28T00:51:01.705Z,99.96
2019-03-28T00:52:01.620Z,99.87
2019-03-28T00:53:01.563Z,99.99
2019-03-28T00:54:01.513Z,99.99
2019-03-28T00:55:01.420Z,99.99
2019-03-28T00:56:01.311Z,99.99
2019-03-28T00:57:01.273Z,99.99
2019-03-28T00:58:01.205Z,99.99
2019-03-28T00:59:01.101Z,99.99
2019-03-28T01:00:00.964Z,99.99
2019-03-28T01:01:00.934Z,99.99
2019-03-28T01:02:00.866Z,99.99
2019-03-28T01:03:00.761Z,99.99
2019-03-28T01:04:00.671Z,99.99
2019-03-28T01:05:00.569Z,99.99
2019-03-28T01:06:00.484Z,99.99
2019-03-28T01:07:00.390Z,99.99
2019-03-28T01:08:00.312Z,99.99
2019-03-28T01:09:00.256Z,99.99
2019-03-28T01:10:00.367Z,99.99
2019-03-28T01:11:00.073Z,99.99
2019-03-28T01:12:00.041Z,99.99
2019-03-28T01:12:59.925Z,99.99
2019-03-28T01:13:59.902Z,99.99
2019-03-28T01:14:59.756Z,99.99
2019-03-28T01:15:59.658Z,99.99
2019-03-28T01:16:59.577Z,99.99
2019-03-28T01:17:59.496Z,99.99
2019-03-28T01:18:59.455Z,99.99
2019-03-28T01:20:00.133Z,99.99
2019-03-28T01:20:59.313Z,99.99
2019-03-28T01:21:59.188Z,99.99
2019-03-28T01:22:59.164Z,99.99
2019-03-28T01:23:59.034Z,99.99
2019-03-28T01:24:59.004Z,99.99
2019-03-28T01:25:58.942Z,99.99
2019-03-28T01:26:59.115Z,99.99
2019-03-28T01:27:58.742Z,99.99
2019-03-28T01:28:58.630Z,99.99
2019-03-28T01:29:58.612Z,99.99
2019-03-28T01:30:58.520Z,99.99
2019-03-28T01:31:58.428Z,99.99
2019-03-28T01:32:58.344Z,99.99
2019-03-28T01:33:58.279Z,99.99
2019-03-28T01:34:58.222Z,99.99
2019-03-28T01:35:58.050Z,99.99
2019-03-28T01:36:58.074Z,99.99
2019-03-28T01:37:57.872Z,99.99
2019-03-28T01:38:57.851Z,99.99
2019-03-28T01:39:57.721Z,99.99
2019-03-28T01:40:57.631Z,99.99
2019-03-28T01:41:57.606Z,99.39
2019-03-28T01:42:57.467Z,99.39
2019-03-28T01:43:57.391Z,99.96
2019-03-28T01:44:57.370Z,99.99
2019-03-28T01:45:57.216Z,99.99
2019-03-28T01:46:57.143Z,99.99
2019-03-28T01:47:57.121Z,99.99
2019-03-28T01:48:57.018Z,99.99
2019-03-28T01:49:56.893Z,99.99
2019-03-28T01:50:56.812Z,99.99
2019-03-28T01:51:56.778Z,99.99
2019-03-28T01:52:56.656Z,99.99
2019-03-28T01:53:56.625Z,99.99
2019-03-28T01:54:56.521Z,99.99
2019-03-28T01:55:56.487Z,99.99
2019-03-28T01:56:56.337Z,99.99
2019-03-28T01:57:56.327Z,99.99
2019-03-28T01:58:56.214Z,99.99
2019-03-28T01:59:56.111Z,99.99
2019-03-28T02:00:56.080Z,99.99
2019-03-28T02:01:55.997Z,99.99
2019-03-28T02:02:55.834Z,99.99
2019-03-28T02:03:55.797Z,99.99
2019-03-28T02:04:55.672Z,99.44
2019-03-28T02:05:55.600Z,97.83
2019-03-28T02:06:55.555Z,97.26
2019-03-28T02:07:55.445Z,96.41
2019-03-28T02:08:55.345Z,97.07
2019-03-28T02:09:55.268Z,98.21
2019-03-28T02:10:55.227Z,99.53
2019-03-28T02:11:56.968Z,99.91
2019-03-28T02:12:55.022Z,99.99
2019-03-28T02:13:55.006Z,99.99
2019-03-28T02:14:54.902Z,99.99
2019-03-28T02:15:55.356Z,99.99
2019-03-28T02:16:54.698Z,99.99
2019-03-28T02:17:54.684Z,99.82
2019-03-28T02:18:54.595Z,98.77
2019-03-28T02:19:54.450Z,97.83
2019-03-28T02:20:54.430Z,96.88
2019-03-28T02:21:54.388Z,96.12
2019-03-28T02:22:54.266Z,96.03
2019-03-28T02:23:54.216Z,96.41
2019-03-28T02:24:54.046Z,97.16
2019-03-28T02:25:53.990Z,98.21
2019-03-28T02:26:53.933Z,99.72
2019-03-28T02:27:53.810Z,99.99
2019-03-28T02:28:53.719Z,99.99
2019-03-28T02:29:53.641Z,99.99
2019-03-28T02:30:53.591Z,99.99
2019-03-28T02:31:53.485Z,99.99
2019-03-28T02:32:53.388Z,99.99
2019-03-28T02:33:53.386Z,99.99
2019-03-28T02:34:53.235Z,99.99
2019-03-28T02:35:53.187Z,99.99
2019-03-28T02:36:53.122Z,99.99
2019-03-28T02:37:52.999Z,99.99
2019-03-28T02:38:52.906Z,99.99
2019-03-28T02:39:52.829Z,99.99
2019-03-28T02:40:52.737Z,99.99
2019-03-28T02:41:52.679Z,99.99
2019-03-28T02:42:53.407Z,99.99
2019-03-28T02:43:52.506Z,99.99
2019-03-28T02:44:52.412Z,99.99
2019-03-28T02:45:52.384Z,99.99
2019-03-28T02:46:52.309Z,99.99
2019-03-28T02:47:52.208Z,99.99
2019-03-28T02:48:52.106Z,99.99
2019-03-28T02:49:52.046Z,99.99
2019-03-28T02:50:51.998Z,99.99
2019-03-28T02:51:51.860Z,99.99
2019-03-28T02:52:51.815Z,99.99
2019-03-28T02:53:51.670Z,99.99
2019-03-28T02:54:51.619Z,99.99
2019-03-28T02:55:51.536Z,99.99
2019-03-28T02:56:51.456Z,99.99
2019-03-28T02:57:51.394Z,99.99
2019-03-28T02:58:51.325Z,99.99
2019-03-28T02:59:51.188Z,99.99
2019-03-28T03:00:51.160Z,99.99
2019-03-28T03:01:51.262Z,99.99
2019-03-28T03:02:51.045Z,99.99
2019-03-28T03:03:50.887Z,99.99
2019-03-28T03:04:50.850Z,99.99
2019-03-28T03:05:50.802Z,99.99
2019-03-28T03:06:50.667Z,99.99
2019-03-28T03:07:50.540Z,99.99
2019-03-28T03:08:50.484Z,99.99
2019-03-28T03:09:51.543Z,99.99
2019-03-28T03:10:50.363Z,99.99
2019-03-28T03:11:50.227Z,99.99
2019-03-28T03:12:50.205Z,99.99
2019-03-28T03:13:50.062Z,99.99
2019-03-28T03:14:49.980Z,99.99
2019-03-28T03:15:49.937Z,99.99
2019-03-28T03:16:49.884Z,99.99
2019-03-28T03:17:49.783Z,99.99
2019-03-28T03:18:49.665Z,99.99
2019-03-28T03:19:49.601Z,99.99
2019-03-28T03:20:49.517Z,99.99
2019-03-28T03:21:49.477Z,99.99
2019-03-28T03:22:49.378Z,99.99
2019-03-28T03:23:49.332Z,99.99
2019-03-28T03:24:49.149Z,99.99
2019-03-28T03:25:49.115Z,99.99
2019-03-28T03:26:49.012Z,99.99
2019-03-28T03:27:57.822Z,99.99
2019-03-28T03:28:48.854Z,99.99
2019-03-28T03:29:48.785Z,99.99
2019-03-28T03:30:48.702Z,99.99
2019-03-28T03:31:48.562Z,99.99
2019-03-28T03:32:48.545Z,99.99
2019-03-28T03:33:48.404Z,99.99
2019-03-28T03:34:48.355Z,99.99
2019-03-28T03:35:48.269Z,99.99
2019-03-28T03:36:48.164Z,99.99
2019-03-28T03:37:48.147Z,99.99
2019-03-28T03:38:48.056Z,99.99
2019-03-28T03:39:47.928Z,99.99
2019-03-28T03:40:47.833Z,99.99
2019-03-28T03:41:47.794Z,99.99
2019-03-28T03:42:47.721Z,99.99
2019-03-28T03:43:47.646Z,99.99
2019-03-28T03:44:47.499Z,99.99
2019-03-28T03:45:47.416Z,99.99
2019-03-28T03:46:47.337Z,99.99
2019-03-28T03:47:47.255Z,99.99
2019-03-28T03:48:47.165Z,99.99
2019-03-28T03:49:47.089Z,99.99
2019-03-28T03:50:47.043Z,99.99
2019-03-28T03:51:47.079Z,99.99
2019-03-28T03:52:46.897Z,99.99
2019-03-28T03:53:46.802Z,99.99
2019-03-28T03:54:46.731Z,99.99
2019-03-28T03:55:46.606Z,99.99
2019-03-28T03:56:46.553Z,99.99
2019-03-28T03:57:46.476Z,99.99
2019-03-28T03:58:46.352Z,99.99
2019-03-28T03:59:46.269Z,99.99
2019-03-28T04:00:46.185Z,99.99
2019-03-28T04:01:46.108Z,99.99
2019-03-28T04:02:46.072Z,99.99
2019-03-28T04:03:45.942Z,99.99
2019-03-28T04:04:45.867Z,99.99
2019-03-28T04:05:45.865Z,99.99
2019-03-28T04:06:45.794Z,99.99
2019-03-28T04:07:45.616Z,99.99
2019-03-28T04:08:45.534Z,99.99
2019-03-28T04:09:45.517Z,99.99
2019-03-28T04:10:45.373Z,99.99
2019-03-28T04:11:45.297Z,99.99
2019-03-28T04:12:45.215Z,99.99
2019-03-28T04:13:45.187Z,99.99
2019-03-28T04:14:45.067Z,99.99
2019-03-28T04:15:44.959Z,99.99
2019-03-28T04:16:44.891Z,99.99
2019-03-28T04:17:44.795Z,99.99
2019-03-28T04:18:44.733Z,99.99
2019-03-28T04:19:44.702Z,99.99
2019-03-28T04:20:44.592Z,99.99
2019-03-28T04:21:44.533Z,99.99
2019-03-28T04:22:44.397Z,99.99
2019-03-28T04:23:44.318Z,99.99
2019-03-28T04:24:44.221Z,99.99
2019-03-28T04:25:44.146Z,99.99
2019-03-28T04:26:44.057Z,99.99
2019-03-28T04:27:43.980Z,99.99
2019-03-28T04:28:43.975Z,99.99
2019-03-28T04:29:43.811Z,99.99
2019-03-28T04:30:43.798Z,99.99
2019-03-28T04:31:43.702Z,99.99
2019-03-28T04:32:43.567Z,99.99
2019-03-28T04:33:43.484Z,99.99
2019-03-28T04:34:43.455Z,99.99
2019-03-28T04:35:43.374Z,99.99
2019-03-28T04:36:43.235Z,99.99
2019-03-28T04:37:43.151Z,99.99
2019-03-28T04:38:43.073Z,99.99
2019-03-28T04:39:43.034Z,99.99
2019-03-28T04:40:42.941Z,99.99
2019-03-28T04:41:42.857Z,99.99
2019-03-28T04:42:45.571Z,99.99
2019-03-28T04:43:42.714Z,99.99
2019-03-28T04:44:42.637Z,99.99
2019-03-28T04:45:42.562Z,99.99
2019-03-28T04:46:42.471Z,99.99
2019-03-28T04:47:42.393Z,99.99
2019-03-28T04:48:42.259Z,99.99
2019-03-28T04:49:42.205Z,99.99
2019-03-28T04:50:42.105Z,99.99
2019-03-28T04:51:42.059Z,99.99
2019-03-28T04:52:41.983Z,99.99
2019-03-28T04:53:41.897Z,99.99
2019-03-28T04:54:41.771Z,99.99
2019-03-28T04:55:41.682Z,99.99
2019-03-28T04:56:41.612Z,99.99
2019-03-28T04:57:41.515Z,99.99
2019-03-28T04:58:44.788Z,99.99
2019-03-28T04:59:41.471Z,99.99
2019-03-28T05:00:41.323Z,99.99
2019-03-28T05:01:41.207Z,99.99
2019-03-28T05:02:41.108Z,99.99
2019-03-28T05:03:41.087Z,99.99
2019-03-28T05:04:41.000Z,99.99
2019-03-28T05:05:40.886Z,99.99
2019-03-28T05:06:40.774Z,99.99
2019-03-28T05:07:40.699Z,99.99
2019-03-28T05:08:40.607Z,99.99
2019-03-28T05:09:40.533Z,99.99
2019-03-28T05:10:40.462Z,99.99
2019-03-28T05:11:40.401Z,99.99
2019-03-28T05:12:40.337Z,99.99
2019-03-28T05:13:40.201Z,99.99
2019-03-28T05:14:40.444Z,99.99
2019-03-28T05:15:40.057Z,99.99
2019-03-28T05:16:39.954Z,99.99
2019-03-28T05:17:40.524Z,99.99
2019-03-28T05:18:39.792Z,99.99
2019-03-28T05:19:39.713Z,99.99
2019-03-28T05:20:40.441Z,99.99
2019-03-28T05:21:39.581Z,99.99
2019-03-28T05:22:39.464Z,99.99
2019-03-28T05:23:39.390Z,99.99
2019-03-28T05:24:39.294Z,99.99
2019-03-28T05:25:39.278Z,99.99
2019-03-28T05:26:39.155Z,99.99
2019-03-28T05:27:39.097Z,99.99
2019-03-28T05:28:38.975Z,99.99
2019-03-28T05:29:38.894Z,99.99
2019-03-28T05:30:38.808Z,99.99
2019-03-28T05:31:38.770Z,99.99
2019-03-28T05:32:38.699Z,99.99
2019-03-28T05:33:38.586Z,99.99
2019-03-28T05:34:38.480Z,99.99
2019-03-28T05:35:38.397Z,99.99
2019-03-28T05:36:38.315Z,99.99
2019-03-28T05:37:38.230Z,99.99
2019-03-28T05:38:38.146Z,99.99
2019-03-28T05:39:38.131Z,99.99
2019-03-28T05:40:38.038Z,99.99
2019-03-28T05:41:37.906Z,99.99
2019-03-28T05:42:37.824Z,99.99
2019-03-28T05:43:37.786Z,99.99
2019-03-28T05:44:37.668Z,99.99
2019-03-28T05:45:37.624Z,99.99
2019-03-28T05:46:38.357Z,99.99
2019-03-28T05:47:37.464Z,99.99
2019-03-28T05:48:37.339Z,99.99
2019-03-28T05:49:37.282Z,99.99
2019-03-28T05:50:37.168Z,99.99
2019-03-28T05:51:37.115Z,99.99
2019-03-28T05:52:36.999Z,99.99
2019-03-28T05:53:36.925Z,99.99
2019-03-28T05:54:36.838Z,99.99
2019-03-28T05:55:36.799Z,99.99
2019-03-28T05:56:36.693Z,99.99
2019-03-28T05:57:36.609Z,99.99
2019-03-28T05:58:36.566Z,99.99
2019-03-28T05:59:36.494Z,99.99
2019-03-28T06:00:38.939Z,99.99
2019-03-28T06:01:36.265Z,99.99
2019-03-28T06:02:36.209Z,99.99
2019-03-28T06:03:36.105Z,99.99
2019-03-28T06:04:36.270Z,99.99
2019-03-28T06:05:35.945Z,99.99
2019-03-28T06:06:35.862Z,99.99
2019-03-28T06:07:36.376Z,99.99
2019-03-28T06:08:35.695Z,99.99
2019-03-28T06:09:35.661Z,99.99
2019-03-28T06:10:36.398Z,99.99
2019-03-28T06:11:35.500Z,99.99
2019-03-28T06:12:35.406Z,99.99
2019-03-28T06:13:35.337Z,99.99
2019-03-28T06:14:35.204Z,99.99
2019-03-28T06:15:35.130Z,99.99
2019-03-28T06:16:35.096Z,99.99
2019-03-28T06:17:35.008Z,99.99
2019-03-28T06:18:34.877Z,99.99
2019-03-28T06:19:34.894Z,99.99
2019-03-28T06:20:34.716Z,99.99
2019-03-28T06:21:34.632Z,99.99
2019-03-28T06:22:34.548Z,99.99
2019-03-28T06:23:34.467Z,99.99
2019-03-28T06:24:34.437Z,99.99
2019-03-28T06:25:34.341Z,99.99
2019-03-28T06:26:34.222Z,99.99
2019-03-28T06:27:34.136Z,99.99
2019-03-28T06:28:34.101Z,99.99
2019-03-28T06:29:33.969Z,99.99
2019-03-28T06:30:33.909Z,99.99
2019-03-28T06:31:33.816Z,99.99
2019-03-28T06:32:42.720Z,99.99
2019-03-28T06:33:34.469Z,99.99
2019-03-28T06:34:33.563Z,99.99
2019-03-28T06:35:33.490Z,99.99
2019-03-28T06:36:33.401Z,99.99
2019-03-28T06:37:33.380Z,99.99
2019-03-28T06:38:33.237Z,99.99
2019-03-28T06:39:36.269Z,99.99
2019-03-28T06:40:33.081Z,99.99
2019-03-28T06:41:33.043Z,99.99
2019-03-28T06:42:32.976Z,99.99
2019-03-28T06:43:32.905Z,99.99
2019-03-28T06:44:32.762Z,99.99
2019-03-28T06:45:32.721Z,99.99
2019-03-28T06:46:32.592Z,99.99
2019-03-28T06:47:32.505Z,99.99
2019-03-28T06:48:32.476Z,99.99
2019-03-28T06:49:32.340Z,99.99
2019-03-28T06:50:32.265Z,99.99
2019-03-28T06:51:32.184Z,99.99
2019-03-28T06:52:32.144Z,99.99
2019-03-28T06:53:32.018Z,99.99
2019-03-28T06:54:31.947Z,99.99
2019-03-28T06:55:31.858Z,99.99
2019-03-28T06:56:31.783Z,99.99
2019-03-28T06:57:31.689Z,99.99
2019-03-28T06:58:31.631Z,99.99
2019-03-28T06:59:37.407Z,99.99
2019-03-28T07:00:31.448Z,99.99
2019-03-28T07:01:31.379Z,99.99
2019-03-28T07:02:31.290Z,99.77
2019-03-28T07:03:31.220Z,99.49
2019-03-28T07:04:31.155Z,98.45
2019-03-28T07:05:31.041Z,97.69
2019-03-28T07:06:30.993Z,97.22
2019-03-28T07:07:30.907Z,96.26
2019-03-28T07:08:30.840Z,97.12
2019-03-28T07:09:30.723Z,97.22
2019-03-28T07:10:30.635Z,96.36
2019-03-28T07:11:30.551Z,95.60
2019-03-28T07:12:30.484Z,95.12
2019-03-28T07:13:30.393Z,95.79
2019-03-28T07:14:30.319Z,97.31
2019-03-28T07:15:30.236Z,97.02
2019-03-28T07:16:30.152Z,96.08
2019-03-28T07:17:30.068Z,94.08
2019-03-28T07:18:30.035Z,93.56
2019-03-28T07:19:29.960Z,93.94
2019-03-28T07:20:29.831Z,92.99
2019-03-28T07:21:29.746Z,92.13
2019-03-28T07:22:29.704Z,91.66
2019-03-28T07:23:29.591Z,91.66
2019-03-28T07:24:29.500Z,91.47
2019-03-28T07:25:29.420Z,90.52
2019-03-28T07:26:29.336Z,91.19
2019-03-28T07:27:29.259Z,91.75
2019-03-28T07:28:29.183Z,91.66
2019-03-28T07:29:29.144Z,91.56
2019-03-28T07:30:29.066Z,90.99
2019-03-28T07:31:28.938Z,91.52
2019-03-28T07:32:28.857Z,91.13
2019-03-28T07:33:28.783Z,89.42
2019-03-28T07:34:28.740Z,87.90
2019-03-28T07:35:28.661Z,86.76
2019-03-28T07:36:28.588Z,86.57
2019-03-28T07:37:28.491Z,85.15
2019-03-28T07:38:28.448Z,84.29
2019-03-28T07:39:28.290Z,85.28
2019-03-28T07:40:28.213Z,85.28
2019-03-28T07:41:28.132Z,84.62
2019-03-28T07:42:28.101Z,83.39
2019-03-28T07:43:27.971Z,83.19
2019-03-28T07:44:28.598Z,83.10
2019-03-28T07:45:27.831Z,83.39
2019-03-28T07:46:27.733Z,83.48
2019-03-28T07:47:27.650Z,83.48
2019-03-28T07:48:27.593Z,84.14
2019-03-28T07:49:27.489Z,85.38
2019-03-28T07:50:27.468Z,86.14
2019-03-28T07:51:27.690Z,86.52
2019-03-28T07:52:27.645Z,84.28
2019-03-28T07:53:27.181Z,83.52
2019-03-28T07:54:27.098Z,84.00
2019-03-28T07:55:27.012Z,83.90
2019-03-28T07:56:26.949Z,83.23
2019-03-28T07:57:26.898Z,82.28
2019-03-28T07:58:26.776Z,80.66
2019-03-28T07:59:26.695Z,79.24
2019-03-28T08:00:26.655Z,78.48
2019-03-28T08:01:26.587Z,78.61
2019-03-28T08:02:26.467Z,78.23
2019-03-28T08:03:26.425Z,77.76
2019-03-28T08:04:26.296Z,76.81
2019-03-28T08:05:26.226Z,76.42
2019-03-28T08:06:26.139Z,76.33
2019-03-28T08:07:26.052Z,76.52
2019-03-28T08:08:38.219Z,76.61
2019-03-28T08:09:36.107Z,75.95
2019-03-28T08:10:25.813Z,75.67
2019-03-28T08:11:25.848Z,75.19
2019-03-28T08:12:25.722Z,74.71
2019-03-28T08:13:25.637Z,74.14
2019-03-28T08:14:25.551Z,74.80
2019-03-28T08:15:25.544Z,74.99
2019-03-28T08:16:28.672Z,73.95
2019-03-28T08:17:25.303Z,74.04
2019-03-28T08:18:25.180Z,73.99
2019-03-28T08:19:25.142Z,74.84
2019-03-28T08:20:25.076Z,74.65
2019-03-28T08:21:25.009Z,73.80
2019-03-28T08:22:24.859Z,73.41
2019-03-28T08:23:24.782Z,73.51
2019-03-28T08:24:24.820Z,74.27
2019-03-28T08:25:24.622Z,73.22
2019-03-28T08:26:24.550Z,73.41
2019-03-28T08:27:24.467Z,74.37
2019-03-28T08:28:24.386Z,75.60
2019-03-28T08:29:24.313Z,76.56
2019-03-28T08:30:24.247Z,75.70
2019-03-28T08:31:24.151Z,73.65
2019-03-28T08:32:24.127Z,72.60
2019-03-28T08:33:23.990Z,72.31
2019-03-28T08:34:23.906Z,72.50
2019-03-28T08:35:23.849Z,73.55
2019-03-28T08:36:23.818Z,73.65
2019-03-28T08:37:23.723Z,73.55
2019-03-28T08:38:23.642Z,72.21
2019-03-28T08:39:23.560Z,72.02
2019-03-28T08:40:23.604Z,72.88
2019-03-28T08:41:23.425Z,72.50
2019-03-28T08:42:23.342Z,72.31
2019-03-28T08:43:23.204Z,72.60
2019-03-28T08:44:23.124Z,72.69
2019-03-28T08:45:23.052Z,72.88
2019-03-28T08:46:22.970Z,72.78
2019-03-28T08:47:22.908Z,72.50
2019-03-28T08:48:22.813Z,71.17
2019-03-28T08:49:22.725Z,70.12
2019-03-28T08:50:22.652Z,70.50
2019-03-28T08:51:22.568Z,71.83
2019-03-28T08:52:22.522Z,72.60
2019-03-28T08:53:22.459Z,72.41
2019-03-28T08:54:22.357Z,72.60
2019-03-28T08:55:22.256Z,72.16
2019-03-28T08:56:22.183Z,72.44
2019-03-28T08:57:22.222Z,71.58
2019-03-28T08:58:22.070Z,71.77
2019-03-28T08:59:21.973Z,71.68
2019-03-28T09:00:32.111Z,71.58
2019-03-28T09:01:21.784Z,72.44
2019-03-28T09:02:21.721Z,71.72
2019-03-28T09:03:21.634Z,69.52
2019-03-28T09:04:21.607Z,70.09
2019-03-28T09:05:21.467Z,70.38
2019-03-28T09:06:21.395Z,70.28
2019-03-28T09:07:21.324Z,70.47
2019-03-28T09:08:21.236Z,70.76
2019-03-28T09:09:21.511Z,68.47
2019-03-28T09:10:21.081Z,67.99
2019-03-28T09:11:21.581Z,69.43
2019-03-28T09:12:20.932Z,70.38
2019-03-28T09:13:20.849Z,71.43
2019-03-28T09:14:20.805Z,71.72
2019-03-28T09:15:20.694Z,71.33
2019-03-28T09:16:20.629Z,68.76
2019-03-28T09:17:23.624Z,68.95
2019-03-28T09:18:34.970Z,69.71
2019-03-28T09:19:20.397Z,71.04
2019-03-28T09:20:20.316Z,70.57
2019-03-28T09:21:20.247Z,70.47
2019-03-28T09:22:20.146Z,68.76
2019-03-28T09:23:20.067Z,68.38
2019-03-28T09:24:20.179Z,68.18
2019-03-28T09:25:19.911Z,68.57
2019-03-28T09:26:19.870Z,70.09
2019-03-28T09:27:19.807Z,68.85
2019-03-28T09:28:19.674Z,68.76
2019-03-28T09:29:19.612Z,67.71
2019-03-28T09:30:19.588Z,67.80
2019-03-28T09:31:20.494Z,68.18
2019-03-28T09:32:19.377Z,68.95
2019-03-28T09:33:19.385Z,68.09
2019-03-28T09:34:19.293Z,66.94
2019-03-28T09:35:19.170Z,66.94
2019-03-28T09:36:19.072Z,67.42
2019-03-28T09:37:18.982Z,68.76
2019-03-28T09:38:18.894Z,69.90
2019-03-28T09:39:18.868Z,70.47
2019-03-28T09:40:18.804Z,68.95
2019-03-28T09:41:18.663Z,67.42
2019-03-28T09:42:18.635Z,66.56
2019-03-28T09:43:18.545Z,66.94
2019-03-28T09:44:18.438Z,67.42
2019-03-28T09:45:18.351Z,67.80
2019-03-28T09:46:18.329Z,67.80
2019-03-28T09:47:18.195Z,67.52
2019-03-28T09:48:18.163Z,67.61
2019-03-28T09:49:18.112Z,67.42
2019-03-28T09:50:17.972Z,67.42
2019-03-28T09:51:17.887Z,67.90
2019-03-28T09:52:17.847Z,67.61
2019-03-28T09:53:17.727Z,67.99
2019-03-28T09:54:17.682Z,68.47
2019-03-28T09:55:19.016Z,67.99
2019-03-28T09:56:17.497Z,68.18
2019-03-28T09:57:17.469Z,67.61
2019-03-28T09:58:17.344Z,67.71
2019-03-28T09:59:17.265Z,67.71
2019-03-28T10:00:17.202Z,67.61
2019-03-28T10:01:17.115Z,68.38
2019-03-28T10:02:17.080Z,68.38
2019-03-28T10:03:16.956Z,68.76
2019-03-28T10:04:16.880Z,67.90
2019-03-28T10:05:16.798Z,68.18
2019-03-28T10:06:16.729Z,68.09
2019-03-28T10:07:16.650Z,67.90
2019-03-28T10:08:16.567Z,67.90
2019-03-28T10:09:16.484Z,67.99
2019-03-28T10:10:16.512Z,68.76
2019-03-28T10:11:16.339Z,67.71
2019-03-28T10:12:16.261Z,67.14
2019-03-28T10:13:16.182Z,67.71
2019-03-28T10:14:16.151Z,67.04
2019-03-28T10:15:16.030Z,67.61
2019-03-28T10:16:15.992Z,68.38
2019-03-28T10:17:15.864Z,68.47
2019-03-28T10:18:15.795Z,68.57
2019-03-28T10:19:15.724Z,69.17
2019-03-28T10:20:15.642Z,69.27
2019-03-28T10:21:15.598Z,69.43
2019-03-28T10:22:15.476Z,68.79
2019-03-28T10:23:15.474Z,68.32
2019-03-28T10:24:15.340Z,68.60
2019-03-28T10:25:15.255Z,68.22
2019-03-28T10:26:15.184Z,69.17
2019-03-28T10:27:15.140Z,68.79
2019-03-28T10:28:15.065Z,67.74
2019-03-28T10:29:14.943Z,67.46
2019-03-28T10:30:14.922Z,67.74
2019-03-28T10:31:16.699Z,68.22
2019-03-28T10:32:14.722Z,68.70
2019-03-28T10:33:14.636Z,68.88
2019-03-28T10:34:14.560Z,69.27
2019-03-28T10:35:14.501Z,70.13
2019-03-28T10:36:14.433Z,70.22
2019-03-28T10:37:14.361Z,69.04
2019-03-28T10:38:14.324Z,69.74
2019-03-28T10:39:14.179Z,69.74
2019-03-28T10:40:14.094Z,69.46
2019-03-28T10:41:14.015Z,68.98
2019-03-28T10:42:13.938Z,69.08
2019-03-28T10:43:13.866Z,70.61
2019-03-28T10:44:13.786Z,70.42
2019-03-28T10:45:13.703Z,70.89
2019-03-28T10:46:13.633Z,70.51
2019-03-28T10:47:13.559Z,69.56
2019-03-28T10:48:13.472Z,69.74
2019-03-28T10:49:13.453Z,69.84
2019-03-28T10:50:13.321Z,69.40
2019-03-28T10:51:13.249Z,69.59
2019-03-28T10:52:13.169Z,69.78
2019-03-28T10:53:13.087Z,70.45
2019-03-28T10:54:19.922Z,70.26
2019-03-28T10:55:12.937Z,69.78
2019-03-28T10:56:21.597Z,69.59
2019-03-28T10:57:18.933Z,68.92
2019-03-28T10:58:18.938Z,68.54
2019-03-28T10:59:22.704Z,69.02
2019-03-28T11:00:23.582Z,69.31
2019-03-28T11:01:12.469Z,69.97
2019-03-28T11:02:12.654Z,70.01
2019-03-28T11:03:12.324Z,68.57
2019-03-28T11:04:12.238Z,69.72
2019-03-28T11:05:12.166Z,68.67
2019-03-28T11:06:12.139Z,68.57
2019-03-28T11:07:12.006Z,68.57
2019-03-28T11:08:11.928Z,68.38
2019-03-28T11:09:11.859Z,68.82
2019-03-28T11:10:11.781Z,68.96
2019-03-28T11:11:11.703Z,67.71
2019-03-28T11:12:11.631Z,67.62
2019-03-28T11:13:11.612Z,67.81
2019-03-28T11:14:11.465Z,68.00
2019-03-28T11:15:11.393Z,68.63
2019-03-28T11:16:14.658Z,70.64
2019-03-28T11:17:11.238Z,69.59
2019-03-28T11:18:11.163Z,70.45
2019-03-28T11:19:11.082Z,71.12
2019-03-28T11:20:11.017Z,71.25
2019-03-28T11:21:10.939Z,69.82
2019-03-28T11:22:10.851Z,69.72
2019-03-28T11:23:10.776Z,69.05
2019-03-28T11:24:10.697Z,68.80
2019-03-28T11:25:10.624Z,68.13
2019-03-28T11:26:10.544Z,67.84
2019-03-28T11:27:10.540Z,67.46
2019-03-28T11:28:10.396Z,67.84
2019-03-28T11:29:10.320Z,67.75
2019-03-28T11:30:10.245Z,68.70
2019-03-28T11:31:10.162Z,68.41
2019-03-28T11:32:10.086Z,68.41
2019-03-28T11:33:10.093Z,67.84
2019-03-28T11:34:09.929Z,67.84
2019-03-28T11:35:09.867Z,67.75
2019-03-28T11:36:09.776Z,66.50
2019-03-28T11:37:19.963Z,66.31
2019-03-28T11:38:09.866Z,67.84
2019-03-28T11:39:09.549Z,68.70
2019-03-28T11:40:09.619Z,70.27
2019-03-28T11:41:09.395Z,69.70
2019-03-28T11:42:09.321Z,68.93
2019-03-28T11:43:09.242Z,69.12
2019-03-28T11:44:09.165Z,68.07
2019-03-28T11:45:09.837Z,67.46
2019-03-28T11:46:09.013Z,67.46
2019-03-28T11:47:08.939Z,68.16
2019-03-28T11:48:08.901Z,68.64
2019-03-28T11:49:08.789Z,68.74
2019-03-28T11:50:08.710Z,68.07
2019-03-28T11:51:08.633Z,67.11
2019-03-28T11:52:08.564Z,66.16
2019-03-28T11:53:08.484Z,66.25
2019-03-28T11:54:08.402Z,65.68
2019-03-28T11:55:08.332Z,65.87
2019-03-28T11:56:08.262Z,65.87
2019-03-28T11:57:08.173Z,65.20
2019-03-28T11:58:08.099Z,65.30
2019-03-28T11:59:08.026Z,66.70
2019-03-28T12:00:07.948Z,67.75
2019-03-28T12:01:07.871Z,67.18
2019-03-28T12:02:19.540Z,66.22
2019-03-28T12:03:07.718Z,67.08
2019-03-28T12:04:09.495Z,67.62
2019-03-28T12:05:07.574Z,68.10
2019-03-28T12:06:07.533Z,68.96
2019-03-28T12:07:07.446Z,68.86
2019-03-28T12:08:07.340Z,68.57
2019-03-28T12:09:07.261Z,68.00
2019-03-28T12:10:07.206Z,68.10
2019-03-28T12:11:07.127Z,68.61
2019-03-28T12:12:07.038Z,68.51
2019-03-28T12:13:06.964Z,68.90
2019-03-28T12:14:06.885Z,67.84
2019-03-28T12:15:06.823Z,68.23
2019-03-28T12:16:06.724Z,67.55
2019-03-28T12:17:06.659Z,66.79
2019-03-28T12:18:06.578Z,67.75
2019-03-28T12:19:06.500Z,67.75
2019-03-28T12:20:06.425Z,67.08
2019-03-28T12:21:06.343Z,68.67
2019-03-28T12:22:06.271Z,69.43
2019-03-28T12:23:06.191Z,69.53
2019-03-28T12:24:06.121Z,69.43
2019-03-28T12:25:06.045Z,69.34
2019-03-28T12:26:06.009Z,70.10
2019-03-28T12:27:05.887Z,70.58
2019-03-28T12:28:05.816Z,69.62
2019-03-28T12:29:06.004Z,70.01
2019-03-28T12:30:05.659Z,69.34
2019-03-28T12:31:05.605Z,68.57
2019-03-28T12:32:13.921Z,68.57
2019-03-28T12:33:05.450Z,68.29
2019-03-28T12:34:05.359Z,68.19
2019-03-28T12:35:05.279Z,68.57
2019-03-28T12:36:05.208Z,68.29
2019-03-28T12:37:05.119Z,67.71
2019-03-28T12:38:05.045Z,67.91
2019-03-28T12:39:04.971Z,68.48
2019-03-28T12:40:04.893Z,67.68
2019-03-28T12:41:04.817Z,67.77
2019-03-28T12:42:04.744Z,67.87
2019-03-28T12:43:04.664Z,68.82
2019-03-28T12:44:04.590Z,70.16
2019-03-28T12:45:04.526Z,70.07
2019-03-28T12:46:04.485Z,70.36
2019-03-28T12:47:04.375Z,69.49
2019-03-28T12:48:04.283Z,69.97
2019-03-28T12:49:04.200Z,71.69
2019-03-28T12:50:04.129Z,71.41
2019-03-28T12:51:04.048Z,71.69